Time;durP1;ratioP1;P1;durP2;ratioP2;P2;SDS_P1;SDS_P2;PMS_P1;PMS_P2;Temp;Humidity;BMP_temperature;BMP_pressure;BME280_temperature;BME280_humidity;BME280_pressure;Samples;Min_cycle;Max_cycle;Signal;HPM_P1;HPM_P2
2022/12/28 00:48:47;;;;;;;9.10;7.20;;;;;;;-1.49;100.00;100451.41;6251205;22;20231;-79
2022/12/28 00:51:16;;;;;;;11.07;8.70;;;;;;;-1.49;100.00;100464.56;6225525;23;20208;-78
2022/12/28 00:53:43;;;;;;;12.27;8.30;;;;;;;-1.57;100.00;100466.13;6201136;23;20212;-79
2022/12/28 00:56:13;;;;;;;10.40;7.90;;;;;;;-1.59;100.00;100462.81;6202938;23;20212;-79
2022/12/28 00:58:40;;;;;;;11.87;7.77;;;;;;;-1.55;100.00;100459.81;6075838;23;20212;-79
2022/12/28 01:01:21;;;;;;;11.77;8.23;;;;;;;-1.67;100.00;100454.69;6099615;23;20208;-79
2022/12/28 01:03:49;;;;;;;10.37;7.47;;;;;;;-1.68;100.00;100456.47;6100898;23;20235;-79
2022/12/28 01:06:18;;;;;;;10.83;7.57;;;;;;;-1.75;100.00;100460.53;6098597;23;20291;-78
2022/12/28 01:08:45;;;;;;;9.73;7.40;;;;;;;-1.73;100.00;100465.69;6099117;23;20200;-79
2022/12/28 01:11:26;;;;;;;10.17;7.40;;;;;;;-1.76;100.00;100464.13;6102116;23;20680;-79
2022/12/28 01:13:55;;;;;;;9.50;6.97;;;;;;;-1.83;100.00;100455.91;6099425;23;20262;-79
2022/12/28 01:16:24;;;;;;;9.70;7.90;;;;;;;-1.83;100.00;100461.16;6074676;23;20200;-79
2022/12/28 01:18:53;;;;;;;8.93;6.63;;;;;;;-1.84;100.00;100458.66;6099267;23;20219;-79
2022/12/28 01:21:23;;;;;;;8.97;7.43;;;;;;;-1.89;100.00;100456.38;6098659;23;20204;-79
2022/12/28 01:23:53;;;;;;;10.40;7.13;;;;;;;-1.95;100.00;100456.00;6079120;23;20236;-80
2022/12/28 01:26:19;;;;;;;9.50;7.63;;;;;;;-1.96;100.00;100459.63;6078349;23;20196;-79
2022/12/28 01:28:46;;;;;;;11.70;8.17;;;;;;;-2.01;100.00;100452.09;6105431;23;20716;-79
2022/12/28 01:31:15;;;;;;;10.17;7.57;;;;;;;-2.03;100.00;100456.63;6105039;23;20222;-79
2022/12/28 01:33:42;;;;;;;10.60;7.33;;;;;;;-2.02;100.00;100458.31;6102714;23;20212;-79
2022/12/28 01:36:23;;;;;;;10.13;7.63;;;;;;;-1.94;100.00;100460.31;6101801;23;20226;-78
2022/12/28 01:38:55;;;;;;;14.30;9.83;;;;;;;-2.02;100.00;100454.84;6099259;23;20215;-79
2022/12/28 01:41:24;;;;;;;14.17;10.53;;;;;;;-2.00;100.00;100453.75;6098910;23;20215;-79
2022/12/28 01:43:50;;;;;;;13.47;9.50;;;;;;;-1.97;100.00;100450.06;6201121;23;20215;-79
2022/12/28 01:46:35;;;;;;;11.97;9.17;;;;;;;-2.09;100.00;100443.97;6099165;23;20210;-79
2022/12/28 01:49:06;;;;;;;16.77;10.77;;;;;;;-2.20;100.00;100443.97;6100189;23;20212;-79
2022/12/28 01:51:49;;;;;;;16.50;10.43;;;;;;;-2.27;100.00;100437.50;6087193;23;20268;-79
2022/12/28 01:54:16;;;;;;;13.73;9.20;;;;;;;-2.17;100.00;100438.47;6096840;23;20590;-79
2022/12/28 01:56:42;;;;;;;14.07;10.00;;;;;;;-2.21;100.00;100444.94;6228482;23;20208;-79
2022/12/28 01:59:10;;;;;;;14.77;10.73;;;;;;;-2.26;100.00;100437.41;6203923;23;20269;-79
2022/12/28 02:01:36;;;;;;;13.90;9.67;;;;;;;-2.23;100.00;100444.19;6228682;23;20381;-79
2022/12/28 02:04:04;;;;;;;12.07;9.43;;;;;;;-2.29;100.00;100442.88;6228146;23;20665;-79
2022/12/28 02:06:31;;;;;;;13.90;9.47;;;;;;;-2.24;100.00;100426.78;6199984;23;20287;-79
2022/12/28 02:09:03;;;;;;;12.20;9.47;;;;;;;-2.31;100.00;100436.09;6102206;23;20212;-80
2022/12/28 02:11:30;;;;;;;15.80;10.00;;;;;;;-2.35;100.00;100432.88;6103395;23;20213;-79
2022/12/28 02:13:57;;;;;;;16.20;10.73;;;;;;;-2.31;100.00;100431.66;6105596;23;20209;-79
2022/12/28 02:16:24;;;;;;;16.57;10.90;;;;;;;-2.42;100.00;100415.91;6230751;23;20288;-80
2022/12/28 02:18:51;;;;;;;15.80;10.97;;;;;;;-2.45;100.00;100418.78;6205804;23;20570;-79
2022/12/28 02:21:21;;;;;;;14.30;10.10;;;;;;;-2.55;100.00;100423.03;6231031;23;20261;-79
2022/12/28 02:24:13;;;;;;;14.90;10.60;;;;;;;-2.50;100.00;100417.44;6231344;23;20225;-79
2022/12/28 02:26:55;;;;;;;15.10;10.40;;;;;;;-2.57;100.00;100405.75;6257575;23;20246;-79
2022/12/28 02:29:50;;;;;;;12.30;9.37;;;;;;;-2.65;100.00;100401.09;6206008;23;20212;-79
2022/12/28 02:32:51;;;;;;;14.03;9.77;;;;;;;-2.61;100.00;100397.28;6229786;23;20270;-79
2022/12/28 02:35:21;;;;;;;14.70;9.30;;;;;;;-2.63;100.00;100393.94;6229331;23;20592;-80
2022/12/28 02:37:55;;;;;;;12.47;8.90;;;;;;;-2.61;100.00;100389.41;6203420;23;20553;-80
2022/12/28 02:40:26;;;;;;;13.37;8.73;;;;;;;-2.59;100.00;100387.50;6077215;23;20214;-80
2022/12/28 02:42:53;;;;;;;12.57;8.40;;;;;;;-2.62;100.00;100373.78;6101775;23;20209;-79
2022/12/28 02:51:22;;;;;;;11.53;7.57;;;;;;;-2.62;100.00;100369.38;6101566;23;20258;-79
2022/12/28 02:56:05;;;;;;;8.63;6.80;;;;;;;-2.58;100.00;100359.50;6100788;23;20239;-79
2022/12/28 02:57:04;;;;;;;10.63;7.47;;;;;;;-2.60;100.00;100356.97;6102419;23;20517;-79
2022/12/28 02:59:58;;;;;;;9.10;6.97;;;;;;;-2.57;100.00;100354.13;6101574;23;20208;-79
2022/12/28 03:02:52;;;;;;;10.67;7.07;;;;;;;-2.65;100.00;100359.09;6100602;23;20219;-79
2022/12/28 03:08:25;;;;;;;7.97;6.40;;;;;;;-2.54;100.00;100332.91;6102540;23;20669;-79
2022/12/28 03:11:04;;;;;;;7.93;6.27;;;;;;;-2.50;100.00;100325.63;6100368;23;20192;-79
2022/12/28 03:13:44;;;;;;;10.63;7.20;;;;;;;-2.55;100.00;100319.88;6098006;23;20171;-78
2022/12/28 03:16:20;;;;;;;8.77;6.83;;;;;;;-2.56;100.00;100315.59;6076274;23;20191;-78
2022/12/28 03:32:53;;;;;;;10.90;6.70;;;;;;;-2.68;100.00;100312.13;6206101;23;20169;-79
2022/12/28 03:35:22;;;;;;;9.43;6.77;;;;;;;-2.75;100.00;100311.75;6211314;23;20181;-79
2022/12/28 03:37:59;;;;;;;8.73;6.63;;;;;;;-2.81;100.00;100312.25;6236329;23;20613;-79
2022/12/28 03:40:47;;;;;;;9.13;6.63;;;;;;;-2.82;100.00;100315.84;6234406;23;20168;-80
2022/12/28 03:46:36;;;;;;;9.60;7.03;;;;;;;-2.84;100.00;100307.22;6222621;23;20157;-81
2022/12/28 03:49:07;;;;;;;10.37;6.87;;;;;;;-2.86;100.00;100295.22;6270505;23;20235;-80
2022/12/28 03:51:35;;;;;;;10.63;7.07;;;;;;;-2.81;100.00;100301.78;6195631;23;20189;-80
2022/12/28 03:54:18;;;;;;;11.47;6.70;;;;;;;-2.82;100.00;100301.88;6196236;23;20152;-80
2022/12/28 03:56:48;;;;;;;8.70;6.63;;;;;;;-2.78;100.00;100290.19;6116640;23;20168;-80
2022/12/28 03:59:16;;;;;;;7.83;5.93;;;;;;;-2.78;100.00;100285.78;6088713;23;20175;-80
2022/12/28 04:01:48;;;;;;;9.20;6.87;;;;;;;-2.78;100.00;100290.19;6088360;23;20171;-79
2022/12/28 04:04:17;;;;;;;10.60;7.77;;;;;;;-2.75;100.00;100276.84;6088700;23;20188;-80
2022/12/28 04:06:46;;;;;;;10.63;8.30;;;;;;;-2.75;100.00;100280.28;6088708;23;20240;-80
2022/12/28 04:09:13;;;;;;;8.10;7.07;;;;;;;-2.75;100.00;100282.06;6064148;23;20172;-80
2022/12/28 04:11:43;;;;;;;9.07;6.53;;;;;;;-2.84;100.00;100267.06;6090500;23;20171;-80
2022/12/28 04:14:18;;;;;;;9.73;7.23;;;;;;;-2.94;100.00;100258.25;6071851;23;20164;-81
2022/12/28 04:16:48;;;;;;;8.53;6.30;;;;;;;-2.82;100.00;100265.16;6064622;23;20617;-80
2022/12/28 04:19:31;;;;;;;8.60;7.00;;;;;;;-2.80;100.00;100258.03;6072278;23;20163;-80
2022/12/28 04:22:02;;;;;;;7.60;6.30;;;;;;;-2.94;100.00;100243.34;6069669;23;20171;-81
2022/12/28 04:24:35;;;;;;;8.53;6.10;;;;;;;-2.99;100.00;100253.38;6065965;23;20169;-79
2022/12/28 04:27:03;;;;;;;8.47;6.50;;;;;;;-2.94;100.00;100256.44;6061468;23;20491;-80
2022/12/28 04:29:32;;;;;;;8.10;6.23;;;;;;;-2.93;100.00;100254.66;6113849;23;20161;-79
2022/12/28 04:32:02;;;;;;;10.43;6.30;;;;;;;-2.99;100.00;100248.13;6061755;23;20172;-80
2022/12/28 04:34:29;;;;;;;9.17;6.30;;;;;;;-2.97;100.00;100256.69;6104368;23;20519;-80
2022/12/28 04:37:07;;;;;;;10.03;6.10;;;;;;;-2.84;100.00;100249.53;6227393;23;20188;-79
2022/12/28 04:39:34;;;;;;;7.70;6.17;;;;;;;-2.96;100.00;100254.91;6232603;23;20169;-80
2022/12/28 04:42:21;;;;;;;8.37;6.00;;;;;;;-3.00;100.00;100246.44;6193297;23;20164;-80
2022/12/28 04:44:48;;;;;;;7.83;4.83;;;;;;;-2.97;100.00;100253.22;6238966;23;20165;-79
2022/12/28 04:47:15;;;;;;;6.60;5.00;;;;;;;-2.97;100.00;100250.63;6211363;23;20205;-80
2022/12/28 04:49:42;;;;;;;9.03;5.10;;;;;;;-2.96;100.00;100260.16;6081690;23;20618;-79
2022/12/28 04:52:09;;;;;;;5.97;4.73;;;;;;;-2.96;100.00;100255.75;6105189;23;20169;-79
2022/12/28 04:54:36;;;;;;;6.23;4.80;;;;;;;-2.92;100.00;100257.19;6182850;23;20181;-79
2022/12/28 04:57:02;;;;;;;6.97;5.00;;;;;;;-2.93;100.00;100247.63;6080217;23;20193;-80
2022/12/28 04:59:29;;;;;;;5.63;4.10;;;;;;;-2.86;100.00;100245.38;6182506;23;20219;-80
2022/12/28 05:01:56;;;;;;;5.93;4.57;;;;;;;-2.87;100.00;100228.81;6132058;23;20238;-79
2022/12/28 05:04:23;;;;;;;5.50;4.43;;;;;;;-2.83;100.00;100221.53;6098731;23;20222;-80
2022/12/28 05:06:49;;;;;;;5.17;4.10;;;;;;;-2.82;100.00;100215.34;6200819;23;20216;-79
2022/12/28 05:09:18;;;;;;;4.83;3.67;;;;;;;-2.73;100.00;100225.09;6099319;23;20212;-79
2022/12/28 05:11:44;;;;;;;5.47;3.70;;;;;;;-2.79;100.00;100217.72;6227631;23;20323;-79
2022/12/28 05:14:11;;;;;;;5.87;4.07;;;;;;;-2.75;100.00;100216.50;6200743;23;20219;-79
2022/12/28 05:16:38;;;;;;;6.53;4.20;;;;;;;-2.75;100.00;100219.13;6086886;23;20208;-79
2022/12/28 05:19:05;;;;;;;5.20;3.83;;;;;;;-2.67;100.00;100214.13;6228456;23;20232;-79
2022/12/28 05:21:31;;;;;;;4.77;3.50;;;;;;;-2.68;100.00;100210.69;6254637;23;20677;-78
2022/12/28 05:23:58;;;;;;;5.70;3.70;;;;;;;-2.72;100.00;100213.66;6254887;23;20208;-79
2022/12/28 05:26:27;;;;;;;6.40;3.83;;;;;;;-2.62;100.00;100203.28;6227636;23;20231;-79
2022/12/28 05:28:55;;;;;;;5.40;3.53;;;;;;;-2.77;100.00;100202.69;6227648;23;20236;-79
2022/12/28 05:31:22;;;;;;;4.93;3.83;;;;;;;-2.82;100.00;100208.31;6252474;23;20715;-79
2022/12/28 05:33:49;;;;;;;4.80;3.90;;;;;;;-2.85;100.00;100199.84;6200800;23;20216;-79
2022/12/28 05:36:18;;;;;;;4.43;3.50;;;;;;;-2.79;100.00;100192.31;6098694;23;20208;-78
2022/12/28 05:38:45;;;;;;;4.13;3.43;;;;;;;-2.75;100.00;100193.75;6074311;23;20673;-78
2022/12/28 05:41:23;;;;;;;4.70;3.37;;;;;;;-2.80;100.00;100198.50;6199650;23;20219;-79
2022/12/28 05:43:50;;;;;;;5.60;3.73;;;;;;;-2.77;100.00;100192.22;6097833;23;20215;-79
2022/12/28 05:46:20;;;;;;;5.23;3.50;;;;;;;-2.77;100.00;100206.16;6100361;23;20192;-78
2022/12/28 05:48:47;;;;;;;5.03;4.17;;;;;;;-2.72;100.00;100205.78;6073558;23;20228;-78
2022/12/28 05:51:16;;;;;;;5.87;5.27;;;;;;;-2.63;100.00;100196.34;6099304;23;20235;-79
2022/12/28 05:53:43;;;;;;;6.60;5.70;;;;;;;-2.63;100.00;100201.59;6097522;23;20208;-79
2022/12/28 05:56:12;;;;;;;6.33;4.97;;;;;;;-2.59;100.00;100200.41;6073008;23;20219;-78
2022/12/28 05:58:41;;;;;;;6.33;5.70;;;;;;;-2.65;100.00;100196.47;6099351;23;20207;-79
2022/12/28 06:01:11;;;;;;;6.50;5.90;;;;;;;-2.68;100.00;100200.19;6097714;23;20240;-79
2022/12/28 06:03:38;;;;;;;4.70;4.20;;;;;;;-2.57;100.00;100190.63;6095716;23;20283;-79
2022/12/28 06:06:13;;;;;;;5.43;4.17;;;;;;;-2.63;100.00;100191.94;6096820;23;20212;-78
2022/12/28 06:08:41;;;;;;;4.97;3.70;;;;;;;-2.66;100.00;100194.81;6098761;23;20714;-79
2022/12/28 06:11:10;;;;;;;4.20;3.40;;;;;;;-2.71;100.00;100189.91;6074034;23;20212;-79
2022/12/28 06:13:37;;;;;;;5.07;3.80;;;;;;;-2.68;100.00;100200.19;6099820;23;20562;-79
2022/12/28 06:16:10;;;;;;;4.77;3.43;;;;;;;-2.72;100.00;100196.13;6098595;23;20195;-79
2022/12/28 06:18:37;;;;;;;5.27;3.83;;;;;;;-2.72;100.00;100190.06;6100182;23;20208;-79
2022/12/28 06:21:10;;;;;;;5.10;3.50;;;;;;;-2.69;100.00;100185.41;6199603;23;20242;-79
2022/12/28 06:23:37;;;;;;;4.50;3.33;;;;;;;-2.65;100.00;100185.97;6225584;23;20207;-79
2022/12/28 06:26:05;;;;;;;4.27;3.13;;;;;;;-2.66;100.00;100192.22;6096931;23;20194;-78
2022/12/28 06:28:34;;;;;;;5.23;3.40;;;;;;;-2.72;100.00;100190.91;6099399;23;20218;-80
2022/12/28 06:31:03;;;;;;;4.43;3.03;;;;;;;-2.72;100.00;100190.06;6049455;23;20733;-78
2022/12/28 06:33:30;;;;;;;4.37;3.33;;;;;;;-2.69;100.00;100188.03;6096588;23;20215;-78
2022/12/28 06:35:57;;;;;;;4.13;3.10;;;;;;;-2.69;100.00;100169.66;6198913;23;20235;-78
2022/12/28 06:38:26;;;;;;;4.93;3.30;;;;;;;-2.63;100.00;100170.97;6073800;23;20214;-79
2022/12/28 06:40:52;;;;;;;4.60;3.10;;;;;;;-2.59;100.00;100172.38;6097154;23;20274;-80
2022/12/28 06:43:40;;;;;;;3.93;2.90;;;;;;;-2.44;100.00;100171.16;6181968;23;20214;-79
2022/12/28 06:46:08;;;;;;;4.77;3.23;;;;;;;-2.32;100.00;100162.28;6096672;23;20212;-79
2022/12/28 06:48:35;;;;;;;4.00;3.03;;;;;;;-2.22;100.00;100178.13;6074104;23;20241;-78
2022/12/28 06:51:07;;;;;;;3.47;2.80;;;;;;;-2.14;100.00;100172.22;6098310;23;20692;-79
2022/12/28 06:53:35;;;;;;;3.67;2.67;;;;;;;-2.00;100.00;100172.75;6097959;23;20250;-79
2022/12/28 06:56:10;;;;;;;3.30;2.53;;;;;;;-1.95;100.00;100156.63;6098600;23;20200;-78
2022/12/28 06:58:37;;;;;;;3.87;2.57;;;;;;;-1.81;100.00;100166.81;6097770;23;20227;-78
2022/12/28 07:01:37;;;;;;;3.80;2.90;;;;;;;-1.68;100.00;100166.66;6098206;23;20275;-78
2022/12/28 07:04:06;;;;;;;3.50;2.67;;;;;;;-1.69;100.00;100165.81;6096868;23;20219;-78
2022/12/28 07:06:41;;;;;;;4.97;2.77;;;;;;;-1.62;100.00;100166.13;6098369;23;20218;-78
2022/12/28 07:09:11;;;;;;;3.87;2.77;;;;;;;-1.57;100.00;100154.25;6226009;23;20230;-79
2022/12/28 07:11:38;;;;;;;4.20;2.67;;;;;;;-1.48;100.00;100153.47;6075571;23;20231;-79
2022/12/28 07:14:05;;;;;;;4.00;3.03;;;;;;;-1.42;100.00;100152.97;6104407;23;20234;-79
2022/12/28 07:16:31;;;;;;;3.33;2.97;;;;;;;-1.27;100.00;100150.00;6104748;23;20266;-79
2022/12/28 07:18:58;;;;;;;6.50;3.27;;;;;;;-1.27;100.00;100139.47;6258936;23;20204;-79
2022/12/28 07:21:30;;;;;;;4.87;3.47;;;;;;;-1.24;100.00;100133.94;6257405;23;20213;-80
2022/12/28 07:23:57;;;;;;;4.13;3.47;;;;;;;-1.16;100.00;100124.44;6229204;23;20214;-79
2022/12/28 07:26:28;;;;;;;5.67;4.10;;;;;;;-1.17;100.00;100119.31;6230492;23;20235;-80
2022/12/28 07:28:56;;;;;;;5.70;4.70;;;;;;;-1.07;100.00;100117.53;6079657;23;20255;-79
2022/12/28 07:31:28;;;;;;;7.67;5.23;;;;;;;-1.01;100.00;100103.84;6104729;23;20231;-79
2022/12/28 07:33:57;;;;;;;6.07;4.90;;;;;;;-0.88;100.00;100112.31;6103224;23;20215;-79
2022/12/28 07:36:24;;;;;;;7.07;4.83;;;;;;;-0.94;100.00;100115.50;6103897;23;20204;-79
2022/12/28 07:38:51;;;;;;;6.97;5.30;;;;;;;-0.88;100.00;100121.06;6103798;23;20235;-79
2022/12/28 07:41:21;;;;;;;6.37;5.10;;;;;;;-0.90;100.00;100120.38;6103383;23;20212;-79
2022/12/28 07:43:48;;;;;;;6.93;5.20;;;;;;;-0.68;100.00;100139.50;6104253;23;20240;-80
2022/12/28 07:46:17;;;;;;;7.03;5.33;;;;;;;-0.67;100.00;100149.09;6078857;23;20672;-79
2022/12/28 07:48:44;;;;;;;6.83;4.80;;;;;;;-0.61;100.00;100144.13;6100985;23;20208;-79
2022/12/28 07:51:12;;;;;;;6.77;5.23;;;;;;;-0.60;100.00;100129.13;6099358;23;20266;-80
2022/12/28 07:53:40;;;;;;;6.57;5.33;;;;;;;-0.53;100.00;100136.38;6077452;23;20581;-79
2022/12/28 07:56:08;;;;;;;7.03;5.00;;;;;;;-0.58;100.00;100140.38;6082535;23;20202;-80
2022/12/28 07:58:35;;;;;;;6.73;5.30;;;;;;;-0.54;100.00;100136.50;6095745;23;20207;-79
2022/12/28 08:01:22;;;;;;;5.73;4.97;;;;;;;-0.38;100.00;100135.97;6097039;23;20287;-78
2022/12/28 08:03:57;;;;;;;5.93;4.53;;;;;;;-0.30;100.00;100136.94;6074119;23;20328;-79
2022/12/28 08:06:25;;;;;;;7.20;5.10;;;;;;;-0.14;100.00;100136.41;6082268;23;20222;-79
2022/12/28 08:08:54;;;;;;;5.47;4.70;;;;;;;0.06;100.00;100137.19;6097513;23;20230;-79
2022/12/28 08:11:23;;;;;;;5.80;4.47;;;;;;;0.16;100.00;100130.94;6072821;23;20251;-79
2022/12/28 08:13:51;;;;;;;5.30;4.10;;;;;;;0.29;100.00;100130.63;6096799;23;20243;-79
2022/12/28 08:16:19;;;;;;;5.67;4.20;;;;;;;0.40;100.00;100141.03;6096025;23;20212;-78
2022/12/28 08:18:47;;;;;;;6.77;4.70;;;;;;;0.52;100.00;100145.16;6096200;23;20208;-78
2022/12/28 08:21:17;;;;;;;7.47;4.23;;;;;;;0.57;100.00;100148.19;6096973;23;20208;-78
2022/12/28 08:23:43;;;;;;;5.37;3.93;;;;;;;0.61;100.00;100138.19;6096923;23;20212;-79
2022/12/28 08:26:16;;;;;;;7.20;4.00;;;;;;;0.70;100.00;100135.53;6197798;23;20620;-78
2022/12/28 08:28:44;;;;;;;7.17;3.60;;;;;;;0.85;100.00;100147.28;6097971;23;20267;-79
2022/12/28 08:31:13;;;;;;;3.63;3.33;;;;;;;0.98;100.00;100146.94;6073373;23;20204;-79
2022/12/28 08:33:40;;;;;;;6.20;5.20;;;;;;;1.18;100.00;100156.44;6097669;23;20259;-78
2022/12/28 08:36:08;;;;;;;7.47;6.13;;;;;;;1.26;100.00;100164.44;6097822;23;20208;-78
2022/12/28 08:38:36;;;;;;;10.17;7.77;;;;;;;1.29;100.00;100165.97;6099049;23;20211;-78
2022/12/28 08:41:05;;;;;;;10.63;7.90;;;;;;;1.37;100.00;100162.56;6095412;23;20212;-78
2022/12/28 08:43:32;;;;;;;10.53;7.30;;;;;;;1.42;100.00;100155.03;6092968;23;20212;-78
2022/12/28 08:46:01;;;;;;;9.73;7.00;;;;;;;1.38;100.00;100161.59;6195788;23;20215;-78
2022/12/28 08:48:28;;;;;;;8.83;6.77;;;;;;;1.38;100.00;100161.59;6115896;23;20215;-77
2022/12/28 08:51:03;;;;;;;8.93;7.33;;;;;;;1.42;100.00;100163.81;6123646;23;20211;-77
2022/12/28 08:53:31;;;;;;;9.40;7.83;;;;;;;1.51;100.00;100176.13;6122612;23;20211;-78
2022/12/28 08:56:05;;;;;;;9.10;7.20;;;;;;;1.66;100.00;100160.59;6095525;23;20211;-76
2022/12/28 08:58:33;;;;;;;8.23;6.93;;;;;;;1.62;100.00;100159.22;6121199;23;20238;-76
2022/12/28 09:01:07;;;;;;;10.43;8.80;;;;;;;1.68;100.00;100161.28;6122391;23;20586;-76
2022/12/28 09:03:36;;;;;;;10.03;8.60;;;;;;;1.71;100.00;100169.72;6121670;23;20268;-76
2022/12/28 09:06:04;;;;;;;14.67;10.23;;;;;;;1.69;100.00;100168.22;6120730;23;20216;-76
2022/12/28 09:08:31;;;;;;;13.47;10.53;;;;;;;1.72;100.00;100170.56;6121752;23;20286;-76
2022/12/28 09:11:02;;;;;;;10.93;9.23;;;;;;;1.88;100.00;100168.06;6096145;23;20223;-76
2022/12/28 09:13:29;;;;;;;10.83;8.27;;;;;;;2.04;100.00;100173.50;6109219;23;20207;-76
2022/12/28 09:16:07;;;;;;;11.47;7.90;;;;;;;1.90;100.00;100175.84;6122302;23;20208;-77
2022/12/28 09:18:34;;;;;;;12.00;8.37;;;;;;;1.96;100.00;100168.13;6121969;23;20552;-77
2022/12/28 09:21:08;;;;;;;10.90;8.60;;;;;;;1.97;100.00;100167.16;6096545;23;20211;-77
2022/12/28 09:23:35;;;;;;;11.00;8.47;;;;;;;2.08;100.00;100161.66;6124799;23;20195;-79
2022/12/28 09:26:08;;;;;;;12.00;9.53;;;;;;;2.16;100.00;100169.66;6103971;23;20210;-79
2022/12/28 09:28:35;;;;;;;14.80;10.00;;;;;;;2.12;100.00;100163.00;6099569;23;20214;-77
2022/12/28 09:31:04;;;;;;;14.00;9.57;;;;;;;2.10;100.00;100158.88;6122269;23;20214;-78
2022/12/28 09:36:39;;;;;;;13.27;9.23;;;;;;;2.34;100.00;100163.50;6122156;23;20277;-77
2022/12/28 09:39:08;;;;;;;12.67;9.10;;;;;;;2.37;100.00;100166.69;6121298;23;20661;-78
2022/12/28 09:41:35;;;;;;;12.27;9.07;;;;;;;2.44;100.00;100161.59;6096766;23;20672;-78
2022/12/28 09:44:35;;;;;;;12.00;8.67;;;;;;;2.60;100.00;100165.19;6121796;23;20249;-77
2022/12/28 09:47:17;;;;;;;11.87;8.60;;;;;;;2.80;100.00;100171.06;6122503;23;20211;-78
2022/12/28 09:49:56;;;;;;;10.67;8.77;;;;;;;2.90;100.00;100166.50;6122470;23;20218;-78
2022/12/28 09:52:30;;;;;;;9.77;8.00;;;;;;;3.06;100.00;100165.78;6121184;23;20207;-78
2022/12/28 09:55:05;;;;;;;8.40;7.47;;;;;;;3.28;100.00;100151.13;6121621;23;20211;-80
2022/12/28 09:57:36;;;;;;;6.50;5.80;;;;;;;3.49;100.00;100152.38;6065667;23;20203;-81
2022/12/28 10:00:05;;;;;;;7.00;5.97;;;;;;;3.57;100.00;100146.25;6116060;23;20710;-77
2022/12/28 10:02:33;;;;;;;7.60;6.10;;;;;;;3.84;100.00;100137.19;6120934;23;20242;-77
2022/12/28 10:05:00;;;;;;;7.50;6.23;;;;;;;3.93;100.00;100125.59;6122434;23;20208;-79
2022/12/28 10:07:27;;;;;;;7.60;6.10;;;;;;;4.16;100.00;100121.28;6122279;23;20227;-80
2022/12/28 10:09:54;;;;;;;8.33;5.90;;;;;;;4.40;100.00;100131.06;6222515;23;20207;-80
2022/12/28 10:12:23;;;;;;;7.27;5.17;;;;;;;4.35;100.00;100130.72;6122000;23;20648;-80
2022/12/28 10:14:50;;;;;;;8.10;7.27;;;;;;;4.44;100.00;100137.66;6097323;23;20231;-80
2022/12/28 10:17:21;;;;;;;90.03;79.43;;;;;;;4.49;100.00;100145.97;6096918;23;20210;-80
2022/12/28 10:19:48;;;;;;;27.13;24.37;;;;;;;4.60;100.00;100134.19;6097196;23;20203;-80
2022/12/28 10:22:18;;;;;;;11.67;7.87;;;;;;;4.74;100.00;100125.53;6122262;23;20207;-79
2022/12/28 10:24:46;;;;;;;8.70;7.47;;;;;;;4.63;100.00;100121.38;6096676;23;20231;-80
2022/12/28 10:27:23;;;;;;;10.77;8.00;;;;;;;4.62;100.00;100119.72;6097318;23;20227;-80
2022/12/28 10:29:51;;;;;;;6.27;5.63;;;;;;;4.54;100.00;100121.56;6097454;23;20214;-81
2022/12/28 10:32:18;;;;;;;53.37;42.27;;;;;;;4.62;100.00;100124.22;6096445;23;20283;-81
2022/12/28 10:34:59;;;;;;;12.53;11.20;;;;;;;4.60;100.00;100104.97;6122051;23;20207;-80
2022/12/28 10:37:30;;;;;;;10.33;9.30;;;;;;;4.65;100.00;100106.13;6122265;23;20203;-80
2022/12/28 10:40:00;;;;;;;6.87;6.07;;;;;;;4.87;100.00;100104.56;6109882;23;20227;-81
2022/12/28 10:42:30;;;;;;;6.07;5.27;;;;;;;5.07;100.00;100083.75;6097746;23;20706;-80
2022/12/28 10:45:02;;;;;;;5.57;4.50;;;;;;;5.20;100.00;100087.50;6122733;23;20210;-81
2022/12/28 10:47:35;;;;;;;5.57;4.73;;;;;;;5.26;100.00;100080.66;6097861;23;20307;-80
2022/12/28 10:50:03;;;;;;;5.03;4.20;;;;;;;5.38;100.00;100071.28;6122578;23;20261;-79
2022/12/28 10:52:56;;;;;;;5.10;4.40;;;;;;;5.58;100.00;100076.97;6102187;23;20664;-80
2022/12/28 10:55:31;;;;;;;7.90;7.20;;;;;;;5.79;100.00;100069.16;6123417;23;20210;-80
2022/12/28 10:58:15;;;;;;;7.00;5.40;;;;;;;5.86;100.00;100061.31;6121547;23;20215;-80
2022/12/28 11:01:05;;;;;;;6.07;4.30;;;;;;;5.68;100.00;100061.63;6119723;23;20231;-79
2022/12/28 11:03:35;;;;;;;4.50;3.80;;;;;;;5.19;100.00;100053.13;6121556;23;20234;-80
2022/12/28 11:06:14;;;;;;;6.50;4.50;;;;;;;4.96;100.00;100053.09;6119861;23;20230;-80
2022/12/28 11:08:42;;;;;;;4.90;4.40;;;;;;;4.71;100.00;100051.53;6116830;23;20214;-80
2022/12/28 11:11:20;;;;;;;5.20;4.70;;;;;;;4.94;100.00;100041.81;6094698;23;20211;-80
2022/12/28 11:14:02;;;;;;;5.40;4.37;;;;;;;5.02;100.00;100046.25;6121448;23;20207;-81
2022/12/28 11:16:34;;;;;;;4.47;4.07;;;;;;;5.02;100.00;100049.75;6124397;23;20254;-82
2022/12/28 11:19:01;;;;;;;7.03;5.20;;;;;;;5.14;100.00;100053.66;6105324;23;20528;-81
2022/12/28 11:21:30;;;;;;;5.07;4.57;;;;;;;5.39;100.00;100050.84;6238461;22;20212;-83
2022/12/28 11:23:59;;;;;;;4.43;4.03;;;;;;;5.47;100.00;100033.03;6106047;22;20198;-82
2022/12/28 11:26:27;;;;;;;4.90;3.97;;;;;;;5.64;100.00;100023.13;6080596;23;20218;-81
2022/12/28 11:28:53;;;;;;;6.13;4.57;;;;;;;5.74;100.00;100019.19;6126254;23;20211;-82
2022/12/28 11:31:30;;;;;;;6.13;4.97;;;;;;;5.90;100.00;100007.63;6072377;23;20278;-80
2022/12/28 11:34:03;;;;;;;6.37;5.30;;;;;;;5.84;100.00;100010.97;6197520;23;20215;-80
2022/12/28 11:36:36;;;;;;;12.67;9.63;;;;;;;5.88;100.00;100006.97;6097987;23;20211;-82
2022/12/28 11:39:43;;;;;;;10.30;9.40;;;;;;;6.04;100.00;99990.03;6099033;23;20211;-80
2022/12/28 11:42:09;;;;;;;9.13;8.23;;;;;;;6.13;100.00;99988.94;6097482;23;20884;-81
2022/12/28 11:44:56;;;;;;;8.00;7.20;;;;;;;6.16;100.00;99988.56;6123672;23;20207;-80
2022/12/28 11:47:31;;;;;;;20.40;15.47;;;;;;;6.28;100.00;99991.63;6123091;23;20672;-80
2022/12/28 11:50:33;;;;;;;7.73;6.93;;;;;;;6.35;100.00;99987.19;6099625;23;20215;-80
2022/12/28 11:53:00;;;;;;;5.43;4.90;;;;;;;6.17;100.00;99991.06;6123476;23;20234;-80
2022/12/28 11:55:49;;;;;;;10.33;9.17;;;;;;;6.24;100.00;99977.84;6098891;23;20215;-80
2022/12/28 11:58:29;;;;;;;37.33;25.80;;;;;;;6.16;100.00;99976.09;6123415;23;20257;-80
2022/12/28 12:00:58;;;;;;;8.20;6.97;;;;;;;6.13;100.00;99965.81;6124605;23;20212;-80
2022/12/28 12:03:56;;;;;;;8.50;7.70;;;;;;;6.09;100.00;99961.06;6073155;23;20245;-80
2022/12/28 12:06:41;;;;;;;6.03;5.30;;;;;;;6.36;100.00;99949.75;6123442;23;20547;-80
2022/12/28 12:09:20;;;;;;;7.30;4.70;;;;;;;6.45;100.00;99937.19;6124926;23;20233;-80
2022/12/28 12:11:51;;;;;;;5.90;4.30;;;;;;;6.53;100.00;99939.75;6124348;23;20217;-80
2022/12/28 12:14:25;;;;;;;6.67;5.63;;;;;;;6.55;100.00;99937.72;6098987;23;20217;-80
2022/12/28 12:17:13;;;;;;;6.77;5.10;;;;;;;6.56;100.00;99939.38;6099306;23;20233;-80
2022/12/28 12:19:46;;;;;;;7.07;4.90;;;;;;;6.49;100.00;99933.97;6124782;23;20229;-81
2022/12/28 12:22:22;;;;;;;6.73;6.03;;;;;;;6.48;100.00;99929.66;6099572;23;20270;-81
2022/12/28 12:25:00;;;;;;;6.50;5.57;;;;;;;6.66;100.00;99912.47;6100495;23;20218;-80
2022/12/28 12:27:35;;;;;;;5.40;4.53;;;;;;;6.72;100.00;99927.69;6126024;23;20215;-80
2022/12/28 12:30:05;;;;;;;5.60;5.03;;;;;;;6.78;100.00;99929.59;6125562;23;20257;-80
2022/12/28 12:32:43;;;;;;;6.53;4.90;;;;;;;6.33;100.00;99922.69;6125974;23;20291;-81
2022/12/28 12:35:13;;;;;;;5.83;5.07;;;;;;;6.02;100.00;99906.94;6125664;23;20282;-81
2022/12/28 12:38:05;;;;;;;6.03;4.80;;;;;;;6.29;100.00;99902.81;6101094;23;20258;-81
2022/12/28 12:40:48;;;;;;;7.03;5.00;;;;;;;6.05;100.00;99904.75;6104719;23;20216;-80
2022/12/28 12:43:29;;;;;;;6.93;5.07;;;;;;;6.20;100.00;99894.09;6226140;23;20214;-81
2022/12/28 12:46:33;;;;;;;5.90;4.90;;;;;;;6.27;100.00;99880.84;6125890;23;20231;-81
2022/12/28 12:49:13;;;;;;;5.93;5.10;;;;;;;6.58;100.00;99890.25;6125950;23;20238;-81
2022/12/28 12:51:39;;;;;;;5.83;4.80;;;;;;;6.76;100.00;99894.34;6226895;23;20269;-81
2022/12/28 12:54:18;;;;;;;7.67;5.23;;;;;;;6.84;100.00;99879.06;6124852;23;20207;-80
2022/12/28 12:56:54;;;;;;;6.00;5.30;;;;;;;6.68;100.00;99883.78;6125441;23;20589;-80
2022/12/28 12:59:42;;;;;;;6.23;5.30;;;;;;;6.41;100.00;99874.69;6100102;23;20207;-81